createdAt,value
2023-05-08T00:00:12.082Z,62.02
2023-05-08T00:02:43.572Z,61.50
2023-05-08T00:05:11.579Z,61.76
2023-05-08T00:07:39.528Z,61.99
2023-05-08T00:10:10.069Z,61.82
2023-05-08T00:12:39.792Z,62.64
2023-05-08T00:15:09.155Z,63.28
2023-05-08T00:17:37.410Z,63.25
2023-05-08T00:20:07.350Z,63.47
2023-05-08T00:22:38.220Z,63.48
2023-05-08T00:25:07.790Z,63.36
2023-05-08T00:27:35.915Z,63.01
2023-05-08T00:30:06.202Z,63.62
2023-05-08T00:32:34.343Z,63.69
2023-05-08T00:35:02.375Z,63.38
2023-05-08T00:37:30.470Z,63.69
2023-05-08T00:40:02.921Z,63.91
2023-05-08T00:42:30.969Z,63.66
2023-05-08T00:45:01.597Z,63.71
2023-05-08T00:47:31.316Z,63.95
2023-05-08T00:50:00.188Z,63.83
2023-05-08T00:52:30.857Z,63.51
2023-05-08T00:54:59.447Z,63.36
2023-05-08T00:57:27.783Z,63.00
2023-05-08T00:59:57.038Z,62.82
2023-05-08T01:02:26.103Z,62.83
2023-05-08T01:04:57.076Z,62.63
2023-05-08T01:07:25.196Z,62.88
2023-05-08T01:09:53.288Z,62.92
2023-05-08T01:12:27.908Z,62.76
2023-05-08T01:15:10.921Z,62.91
2023-05-08T01:17:47.539Z,62.24
2023-05-08T01:20:26.480Z,62.46
2023-05-08T01:23:23.191Z,62.18
2023-05-08T01:26:48.884Z,62.07
2023-05-08T01:29:49.169Z,62.36
2023-05-08T01:32:25.083Z,62.08
2023-05-08T01:35:13.778Z,61.97
2023-05-08T01:37:48.575Z,62.42
2023-05-08T01:40:26.283Z,62.92
2023-05-08T01:43:05.176Z,62.76
2023-05-08T01:45:37.493Z,62.63
2023-05-08T01:48:10.873Z,63.27
2023-05-08T01:50:44.260Z,63.14
2023-05-08T01:53:19.499Z,63.81
2023-05-08T01:55:50.215Z,63.66
2023-05-08T01:58:19.561Z,63.57
2023-05-08T02:00:49.271Z,63.38
2023-05-08T02:03:21.737Z,63.33
2023-05-08T02:05:52.440Z,63.23
2023-05-08T02:08:25.072Z,63.60
2023-05-08T02:10:56.730Z,64.04
2023-05-08T02:13:27.823Z,64.15
2023-05-08T02:15:59.270Z,63.94
2023-05-08T02:18:32.887Z,64.01
2023-05-08T02:21:03.670Z,64.12
2023-05-08T02:23:32.661Z,64.78
2023-05-08T02:26:03.300Z,65.00
2023-05-08T02:28:33.072Z,65.05
2023-05-08T02:31:02.928Z,64.89
2023-05-08T02:33:33.685Z,65.41
2023-05-08T02:36:06.643Z,65.43
2023-05-08T02:38:37.751Z,65.58
2023-05-08T02:41:07.361Z,65.68
2023-05-08T02:43:35.549Z,65.79
2023-05-08T02:46:11.919Z,66.85
2023-05-08T02:48:49.386Z,66.87
2023-05-08T02:51:24.861Z,67.22
2023-05-08T02:53:58.736Z,66.72
2023-05-08T02:56:35.776Z,66.76
2023-05-08T02:59:15.114Z,66.33
2023-05-08T03:01:49.604Z,67.28
2023-05-08T03:04:28.149Z,67.54
2023-05-08T03:07:00.792Z,67.63
2023-05-08T03:09:38.199Z,67.86
2023-05-08T03:12:10.980Z,67.64
2023-05-08T03:14:48.531Z,67.83
2023-05-08T03:17:20.532Z,67.54
2023-05-08T03:19:56.362Z,67.68
2023-05-08T03:22:27.004Z,67.41
2023-05-08T03:24:55.879Z,67.80
2023-05-08T03:27:24.902Z,67.86
2023-05-08T03:29:54.807Z,67.75
2023-05-08T03:32:25.596Z,68.64
2023-05-08T03:34:56.671Z,68.76
2023-05-08T03:37:24.714Z,68.01
2023-05-08T03:39:53.039Z,68.38
2023-05-08T03:42:22.397Z,68.38
2023-05-08T03:44:52.382Z,68.42
2023-05-08T03:47:21.850Z,68.89
2023-05-08T03:49:51.353Z,69.14
2023-05-08T03:52:20.913Z,68.44
2023-05-08T03:54:52.352Z,69.46
2023-05-08T03:57:20.469Z,68.99
2023-05-08T03:59:53.941Z,68.59
2023-05-08T04:02:34.923Z,69.28
2023-05-08T04:05:15.680Z,69.22
2023-05-08T04:07:54.219Z,69.88
2023-05-08T04:10:30.729Z,69.17
2023-05-08T04:13:10.792Z,68.93
2023-05-08T04:15:42.512Z,68.89
2023-05-08T04:18:13.816Z,69.23
2023-05-08T04:20:44.522Z,69.47
2023-05-08T04:23:19.119Z,69.32
2023-05-08T04:25:50.239Z,69.09
2023-05-08T04:28:20.710Z,69.13
2023-05-08T04:30:52.064Z,69.78
2023-05-08T04:33:20.440Z,69.19
2023-05-08T04:35:49.687Z,68.92
2023-05-08T04:38:19.070Z,68.71
2023-05-08T04:40:47.231Z,68.95
2023-05-08T04:43:16.617Z,68.46
2023-05-08T04:45:45.420Z,67.93
2023-05-08T04:48:16.343Z,68.26
2023-05-08T04:50:44.337Z,69.05
2023-05-08T04:53:12.957Z,68.68
2023-05-08T04:55:42.293Z,67.90
2023-05-08T04:58:12.057Z,68.97
2023-05-08T05:00:41.585Z,68.46
2023-05-08T05:03:10.074Z,68.46
2023-05-08T05:05:39.651Z,67.59
2023-05-08T05:08:08.309Z,67.67
2023-05-08T05:10:36.303Z,67.65
2023-05-08T05:13:06.210Z,67.41
2023-05-08T05:15:35.824Z,67.21
2023-05-08T05:18:04.215Z,66.89
2023-05-08T05:20:33.330Z,67.13
2023-05-08T05:23:02.588Z,66.76
2023-05-08T05:25:30.626Z,65.89
2023-05-08T05:27:59.039Z,65.67
2023-05-08T05:30:29.954Z,65.91
2023-05-08T05:32:58.198Z,65.43
2023-05-08T05:35:26.522Z,65.54
2023-05-08T05:37:54.766Z,65.99
2023-05-08T05:40:22.757Z,66.21
2023-05-08T05:42:51.628Z,65.73
2023-05-08T05:45:20.001Z,65.76
2023-05-08T05:47:50.780Z,65.13
2023-05-08T05:50:19.859Z,64.71
2023-05-08T05:52:48.210Z,64.59
2023-05-08T05:55:16.376Z,64.19
2023-05-08T05:57:44.796Z,64.50
2023-05-08T06:00:13.586Z,64.53
2023-05-08T06:02:43.960Z,64.24
2023-05-08T06:05:13.851Z,63.98
2023-05-08T06:07:42.129Z,63.46
2023-05-08T06:10:11.040Z,63.17
2023-05-08T06:12:41.859Z,63.13
2023-05-08T06:15:11.309Z,62.47
2023-05-08T06:17:39.843Z,62.35
2023-05-08T06:20:09.328Z,62.38
2023-05-08T06:22:40.189Z,61.95
2023-05-08T06:25:10.061Z,61.75
2023-05-08T06:27:38.420Z,61.88
2023-05-08T06:30:10.939Z,61.84
2023-05-08T06:32:39.126Z,61.53
2023-05-08T06:35:08.236Z,61.49
2023-05-08T06:37:36.582Z,60.34
2023-05-08T06:42:38.541Z,60.07
2023-05-08T06:45:07.928Z,59.20
2023-05-08T06:47:36.268Z,54.64
2023-05-08T06:50:04.705Z,47.30
2023-05-08T06:52:32.787Z,44.94
2023-05-08T06:55:03.616Z,43.13
2023-05-08T06:57:37.262Z,41.02
2023-05-08T07:00:06.256Z,41.05
2023-05-08T07:02:34.297Z,40.38
2023-05-08T07:05:03.420Z,38.95
2023-05-08T07:07:31.599Z,38.90
2023-05-08T07:10:00.000Z,37.55
2023-05-08T07:12:32.154Z,36.60
2023-05-08T07:15:10.678Z,35.42
2023-05-08T07:17:47.035Z,35.92
2023-05-08T07:20:15.373Z,35.15
2023-05-08T07:22:43.878Z,36.23
2023-05-08T07:25:12.962Z,36.97
2023-05-08T07:27:41.680Z,37.01
2023-05-08T07:30:11.896Z,36.10
2023-05-08T07:32:42.987Z,35.73
2023-05-08T07:35:12.902Z,35.65
2023-05-08T07:37:41.648Z,36.63
2023-05-08T07:40:10.134Z,36.21
2023-05-08T07:42:42.589Z,36.33
2023-05-08T07:45:14.705Z,36.47
2023-05-08T07:47:51.097Z,34.81
2023-05-08T07:50:19.425Z,33.04
2023-05-08T07:52:49.760Z,32.36
2023-05-08T07:55:18.906Z,32.08
2023-05-08T07:57:47.254Z,30.69
2023-05-08T08:00:17.737Z,31.46
2023-05-08T08:02:46.399Z,30.30
2023-05-08T08:05:14.829Z,30.78
2023-05-08T08:07:43.658Z,30.44
2023-05-08T08:10:12.562Z,31.18
2023-05-08T08:12:40.842Z,30.43
2023-05-08T08:15:09.693Z,29.86
2023-05-08T08:17:39.129Z,29.96
2023-05-08T08:20:08.729Z,29.42
2023-05-08T08:22:39.071Z,29.72
2023-05-08T08:25:08.442Z,30.85
2023-05-08T08:27:36.296Z,30.92
2023-05-08T08:30:12.875Z,31.16
2023-05-08T08:32:47.549Z,32.00
2023-05-08T08:35:18.733Z,32.61
2023-05-08T08:37:46.811Z,33.33
2023-05-08T08:40:15.090Z,32.16
2023-05-08T08:42:43.083Z,32.08
2023-05-08T08:45:12.206Z,32.02
2023-05-08T08:47:42.615Z,31.53
2023-05-08T08:50:15.003Z,31.09
2023-05-08T08:52:49.530Z,29.83
2023-05-08T08:55:19.460Z,29.37
2023-05-08T08:57:56.291Z,27.97
2023-05-08T09:00:27.910Z,27.09
2023-05-08T09:02:56.082Z,27.81
2023-05-08T09:05:26.619Z,29.24
2023-05-08T09:07:56.021Z,30.85
2023-05-08T09:10:25.291Z,31.73
2023-05-08T09:12:53.877Z,32.86
2023-05-08T09:15:22.138Z,34.73
2023-05-08T09:17:50.551Z,34.35
2023-05-08T09:20:19.011Z,33.23
2023-05-08T09:22:49.019Z,33.52
2023-05-08T09:25:19.118Z,34.19
2023-05-08T09:27:47.186Z,34.11
2023-05-08T09:30:15.667Z,34.30
2023-05-08T09:32:45.548Z,34.65
2023-05-08T09:35:14.276Z,34.82
2023-05-08T09:37:43.658Z,34.03
2023-05-08T09:40:21.843Z,33.91
2023-05-08T09:42:54.058Z,34.74
2023-05-08T09:45:29.907Z,35.26
2023-05-08T09:48:03.374Z,35.89
2023-05-08T09:50:33.204Z,36.13
2023-05-08T09:53:01.384Z,37.13
2023-05-08T09:55:48.089Z,37.89
2023-05-08T09:58:16.203Z,38.48
2023-05-08T10:00:44.758Z,38.55
2023-05-08T10:03:13.368Z,38.39
2023-05-08T10:05:41.989Z,38.29
2023-05-08T10:08:20.842Z,38.39
2023-05-08T10:10:50.253Z,38.02
2023-05-08T10:13:18.518Z,37.71
2023-05-08T10:15:46.813Z,37.80
2023-05-08T10:18:17.153Z,36.82
2023-05-08T10:20:50.082Z,36.48
2023-05-08T10:23:19.358Z,37.07
2023-05-08T10:25:55.097Z,37.61
2023-05-08T10:28:34.144Z,37.14
2023-05-08T10:31:05.607Z,37.21
2023-05-08T10:33:36.142Z,37.19
2023-05-08T10:36:04.542Z,36.71
2023-05-08T10:38:32.979Z,37.14
2023-05-08T10:41:03.332Z,36.82
2023-05-08T10:43:32.473Z,36.84
2023-05-08T10:46:08.568Z,37.06
2023-05-08T10:48:46.158Z,36.38
2023-05-08T10:51:22.757Z,36.26
2023-05-08T10:53:55.412Z,35.91
2023-05-08T10:56:30.370Z,36.49
2023-05-08T10:58:59.506Z,36.87
2023-05-08T11:01:28.418Z,37.39
2023-05-08T11:03:57.326Z,37.50
2023-05-08T11:06:47.353Z,36.67
2023-05-08T11:09:29.687Z,36.19
2023-05-08T11:12:24.490Z,36.44
2023-05-08T11:15:00.311Z,36.46
2023-05-08T11:17:30.264Z,36.63
2023-05-08T11:20:01.321Z,36.65
2023-05-08T11:22:32.403Z,36.61
2023-05-08T11:25:03.103Z,36.35
2023-05-08T11:27:37.850Z,35.97
2023-05-08T11:30:38.610Z,35.85
2023-05-08T11:33:17.904Z,35.52
2023-05-08T11:35:54.462Z,35.00
2023-05-08T11:38:25.297Z,34.94
2023-05-08T11:41:01.773Z,35.81
2023-05-08T11:44:05.251Z,35.19
2023-05-08T11:46:41.502Z,35.11
2023-05-08T11:49:15.554Z,34.87
2023-05-08T11:51:45.980Z,34.10
2023-05-08T11:54:19.855Z,34.10
2023-05-08T11:56:49.077Z,34.67
2023-05-08T11:59:19.408Z,34.72
2023-05-08T12:02:06.943Z,34.42
2023-05-08T12:04:45.779Z,32.80
2023-05-08T12:07:13.926Z,32.50
2023-05-08T12:09:42.412Z,32.76
2023-05-08T12:12:10.392Z,31.90
2023-05-08T12:14:39.672Z,31.71
2023-05-08T12:17:08.042Z,31.75
2023-05-08T12:19:36.489Z,31.85
2023-05-08T12:22:04.828Z,32.65
2023-05-08T12:24:35.912Z,32.95
2023-05-08T12:27:05.571Z,33.05
2023-05-08T12:29:38.400Z,32.24
2023-05-08T12:32:08.129Z,31.85
2023-05-08T12:34:37.410Z,31.74
2023-05-08T12:37:08.597Z,31.67
2023-05-08T12:39:38.130Z,31.69
2023-05-08T12:42:06.311Z,31.74
2023-05-08T12:44:34.528Z,32.19
2023-05-08T12:47:02.585Z,31.50
2023-05-08T12:49:33.027Z,32.00
2023-05-08T12:52:03.851Z,32.01
2023-05-08T12:54:36.313Z,32.11
2023-05-08T12:57:10.741Z,31.93
2023-05-08T12:59:42.778Z,31.84
2023-05-08T13:02:15.084Z,31.82
2023-05-08T13:04:45.027Z,31.84
2023-05-08T13:07:13.287Z,31.77
2023-05-08T13:09:42.771Z,31.88
2023-05-08T13:12:10.838Z,31.88
2023-05-08T13:14:38.913Z,32.23
2023-05-08T13:17:07.244Z,32.18
2023-05-08T13:19:35.976Z,32.10
2023-05-08T13:22:07.874Z,32.29
2023-05-08T13:24:36.155Z,32.37
2023-05-08T13:27:04.888Z,32.55
2023-05-08T13:29:34.080Z,32.29
2023-05-08T13:32:02.415Z,32.19
2023-05-08T13:34:32.766Z,32.21
2023-05-08T13:37:00.929Z,32.45
2023-05-08T13:39:32.110Z,32.43
2023-05-08T13:42:00.566Z,32.28
2023-05-08T13:44:28.784Z,31.91
2023-05-08T13:46:57.148Z,32.32
2023-05-08T13:49:26.346Z,32.34
2023-05-08T13:51:57.643Z,31.80
2023-05-08T13:54:25.775Z,31.71
2023-05-08T13:56:55.423Z,31.82
2023-05-08T13:59:27.123Z,31.78
2023-05-08T14:01:55.237Z,32.11
2023-05-08T14:04:23.379Z,32.24
2023-05-08T14:06:54.824Z,31.68
2023-05-08T14:09:23.125Z,31.84
2023-05-08T14:11:51.204Z,31.42
2023-05-08T14:14:21.264Z,31.32
2023-05-08T14:16:50.953Z,31.58
2023-05-08T14:19:19.578Z,31.47
2023-05-08T14:21:48.300Z,31.44
2023-05-08T14:24:16.338Z,31.18
2023-05-08T14:26:45.001Z,30.85
2023-05-08T14:29:13.066Z,31.19
2023-05-08T14:31:43.216Z,31.18
2023-05-08T14:34:13.937Z,31.61
2023-05-08T14:36:41.869Z,31.15
2023-05-08T14:39:10.015Z,31.19
2023-05-08T14:41:40.579Z,31.27
2023-05-08T14:44:09.518Z,31.29
2023-05-08T14:46:37.568Z,31.00
2023-05-08T14:49:07.306Z,30.61
2023-05-08T14:51:35.238Z,30.72
2023-05-08T14:54:04.082Z,30.91
2023-05-08T14:56:44.354Z,30.41
2023-05-08T14:59:15.152Z,30.56
2023-05-08T15:01:43.316Z,30.50
2023-05-08T15:04:13.265Z,30.39
2023-05-08T15:06:41.576Z,30.38
2023-05-08T15:09:10.614Z,30.41
2023-05-08T15:11:38.956Z,30.45
2023-05-08T15:14:06.981Z,29.95
2023-05-08T15:16:35.179Z,29.87
2023-05-08T15:19:03.241Z,30.10
2023-05-08T15:21:33.635Z,29.60
2023-05-08T15:24:01.928Z,29.31
2023-05-08T15:26:30.026Z,29.67
2023-05-08T15:28:58.147Z,29.68
2023-05-08T15:31:26.391Z,29.06
2023-05-08T15:33:54.910Z,29.05
2023-05-08T15:36:22.928Z,29.17
2023-05-08T15:38:53.994Z,29.10
2023-05-08T15:41:21.947Z,29.03
2023-05-08T15:43:50.084Z,29.02
2023-05-08T15:46:18.649Z,29.13
2023-05-08T15:48:46.867Z,28.29
2023-05-08T15:51:17.066Z,28.31
2023-05-08T15:53:45.482Z,28.17
2023-05-08T15:56:15.463Z,28.50
2023-05-08T15:58:43.648Z,28.40
2023-05-08T16:01:12.806Z,28.72
2023-05-08T16:03:41.135Z,28.71
2023-05-08T16:06:09.601Z,28.38
2023-05-08T16:08:38.179Z,28.41
2023-05-08T16:11:06.620Z,28.47
2023-05-08T16:13:38.255Z,28.27
2023-05-08T16:16:07.328Z,28.21
2023-05-08T16:18:35.549Z,28.21
2023-05-08T16:21:09.256Z,28.26
2023-05-08T16:23:37.260Z,28.10
2023-05-08T16:26:05.399Z,28.06
2023-05-08T16:28:33.593Z,28.20
2023-05-08T16:31:06.690Z,28.30
2023-05-08T16:33:34.582Z,27.89
2023-05-08T16:36:02.682Z,28.10
2023-05-08T16:38:30.820Z,28.03
2023-05-08T16:41:02.836Z,28.23
2023-05-08T16:43:31.527Z,28.22
2023-05-08T16:46:01.205Z,28.32
2023-05-08T16:48:32.747Z,28.32
2023-05-08T16:51:00.975Z,28.17
2023-05-08T16:53:32.780Z,28.12
2023-05-08T16:56:01.143Z,28.19
2023-05-08T16:58:30.613Z,28.02
2023-05-08T17:00:58.609Z,27.85
2023-05-08T17:03:28.056Z,28.36
2023-05-08T17:06:01.085Z,28.54
2023-05-08T17:08:30.003Z,28.31
2023-05-08T17:10:57.974Z,28.58
2023-05-08T17:13:26.849Z,28.42
2023-05-08T17:15:55.133Z,28.41
2023-05-08T17:18:23.274Z,28.30
2023-05-08T17:20:52.186Z,28.25
2023-05-08T17:23:21.491Z,28.16
2023-05-08T17:25:56.570Z,28.71
2023-05-08T17:28:24.482Z,28.63
2023-05-08T17:30:52.816Z,28.27
2023-05-08T17:33:21.476Z,28.37
2023-05-08T17:35:49.888Z,28.27
2023-05-08T17:38:18.402Z,28.66
2023-05-08T17:40:48.260Z,28.59
2023-05-08T17:43:16.738Z,28.64
2023-05-08T17:45:48.117Z,28.81
2023-05-08T17:48:16.255Z,28.49
2023-05-08T17:50:45.841Z,28.57
2023-05-08T17:53:14.101Z,28.52
2023-05-08T17:55:42.015Z,28.58
2023-05-08T17:58:11.427Z,28.40
2023-05-08T18:00:39.466Z,28.50
2023-05-08T18:03:07.630Z,28.67
2023-05-08T18:05:38.620Z,28.94
2023-05-08T18:08:06.773Z,28.92
2023-05-08T18:10:36.412Z,28.81
2023-05-08T18:13:04.448Z,28.97
2023-05-08T18:15:39.118Z,29.05
2023-05-08T18:18:07.122Z,29.07
2023-05-08T18:20:35.444Z,29.25
2023-05-08T18:23:03.561Z,29.31
2023-05-08T18:25:31.412Z,29.48
2023-05-08T18:28:00.564Z,29.38
2023-05-08T18:30:31.881Z,29.62
2023-05-08T18:33:01.609Z,29.45
2023-05-08T18:35:30.020Z,29.83
2023-05-08T18:37:57.986Z,29.76
2023-05-08T18:40:28.704Z,29.70
2023-05-08T18:42:56.869Z,29.84
2023-05-08T18:45:24.812Z,29.76
2023-05-08T18:47:54.174Z,29.88
2023-05-08T18:50:23.946Z,29.84
2023-05-08T18:52:52.218Z,29.97
2023-05-08T18:55:20.417Z,29.66
2023-05-08T18:57:50.022Z,29.64
2023-05-08T19:00:18.639Z,29.84
2023-05-08T19:02:46.949Z,30.16
2023-05-08T19:05:15.202Z,30.24
2023-05-08T19:07:45.445Z,30.57
2023-05-08T19:10:13.763Z,30.87
2023-05-08T19:12:41.987Z,31.50
2023-05-08T19:15:14.057Z,31.87
2023-05-08T19:17:42.614Z,32.22
2023-05-08T19:20:14.660Z,32.51
2023-05-08T19:22:44.323Z,32.79
2023-05-08T19:25:13.784Z,32.87
2023-05-08T19:27:42.267Z,33.16
2023-05-08T19:30:11.516Z,33.24
2023-05-08T19:32:39.832Z,33.44
2023-05-08T19:35:09.799Z,33.67
2023-05-08T19:37:39.269Z,34.02
2023-05-08T19:40:10.043Z,34.13
2023-05-08T19:42:38.012Z,34.42
2023-05-08T19:45:07.275Z,34.56
2023-05-08T19:47:35.335Z,34.60
2023-05-08T19:50:03.357Z,34.89
2023-05-08T19:52:31.319Z,35.15
2023-05-08T19:55:00.042Z,35.34
2023-05-08T19:57:30.762Z,35.45
2023-05-08T19:59:58.805Z,35.57
2023-05-08T20:02:36.079Z,35.61
2023-05-08T20:05:21.663Z,35.78
2023-05-08T20:07:50.531Z,35.87
2023-05-08T20:10:23.643Z,36.06
2023-05-08T20:12:54.555Z,36.21
2023-05-08T20:15:25.244Z,36.28
2023-05-08T20:17:54.407Z,36.61
2023-05-08T20:20:35.860Z,36.54
2023-05-08T20:23:28.106Z,36.75
2023-05-08T20:26:00.883Z,36.77
2023-05-08T20:28:33.134Z,36.70
2023-05-08T20:31:02.142Z,36.65
2023-05-08T20:33:30.365Z,37.02
2023-05-08T20:35:58.311Z,37.07
2023-05-08T20:38:26.986Z,37.08
2023-05-08T20:40:58.192Z,36.96
2023-05-08T20:43:28.247Z,37.44
2023-05-08T20:45:57.634Z,37.26
2023-05-08T20:48:25.814Z,37.15
2023-05-08T20:50:54.416Z,37.10
2023-05-08T20:53:22.856Z,37.09
2023-05-08T20:55:51.149Z,37.12
2023-05-08T20:58:19.846Z,37.30
2023-05-08T21:00:48.329Z,37.45
2023-05-08T21:03:18.513Z,37.24
2023-05-08T21:05:46.550Z,37.18
2023-05-08T21:08:15.110Z,37.62
2023-05-08T21:10:43.077Z,37.14
2023-05-08T21:13:11.113Z,37.40
2023-05-08T21:15:39.052Z,37.17
2023-05-08T21:18:11.918Z,37.29
2023-05-08T21:20:41.325Z,37.28
2023-05-08T21:23:09.372Z,37.42
2023-05-08T21:25:40.764Z,37.41
2023-05-08T21:28:09.568Z,37.81
2023-05-08T21:30:37.675Z,37.64
2023-05-08T21:33:08.259Z,37.58
2023-05-08T21:35:36.166Z,37.94
2023-05-08T21:38:06.536Z,38.23
2023-05-08T21:40:34.572Z,38.05
2023-05-08T21:43:02.516Z,38.41
2023-05-08T21:45:31.773Z,38.35
2023-05-08T21:48:00.409Z,38.51
2023-05-08T21:50:29.486Z,38.13
2023-05-08T21:53:00.394Z,38.39
2023-05-08T21:55:33.712Z,38.56
2023-05-08T21:58:02.016Z,38.35
2023-05-08T22:00:30.011Z,38.71
2023-05-08T22:02:58.182Z,38.67
2023-05-08T22:05:26.595Z,38.69
2023-05-08T22:07:54.798Z,38.80
2023-05-08T22:10:22.759Z,38.52
2023-05-08T22:12:52.329Z,38.55
2023-05-08T22:15:29.689Z,38.69
2023-05-08T22:17:59.102Z,39.05
2023-05-08T22:20:27.292Z,38.86
2023-05-08T22:22:55.214Z,39.19
2023-05-08T22:25:23.606Z,38.88
2023-05-08T22:27:54.508Z,39.03
2023-05-08T22:30:22.638Z,38.91
2023-05-08T22:32:55.707Z,38.75
2023-05-08T22:35:24.881Z,39.17
2023-05-08T22:37:53.356Z,38.78
2023-05-08T22:40:22.291Z,38.97
2023-05-08T22:42:53.532Z,38.59
2023-05-08T22:45:21.769Z,38.42
2023-05-08T22:47:52.223Z,38.54
2023-05-08T22:50:22.500Z,38.61
2023-05-08T22:52:50.441Z,38.95
2023-05-08T22:55:18.913Z,38.70
2023-05-08T22:57:52.822Z,38.47
2023-05-08T23:00:22.857Z,38.73
2023-05-08T23:02:51.355Z,38.60
2023-05-08T23:05:25.534Z,38.59
2023-05-08T23:07:53.648Z,38.54
2023-05-08T23:10:21.553Z,38.47
2023-05-08T23:12:50.089Z,38.52
2023-05-08T23:15:18.340Z,38.58
2023-05-08T23:17:48.270Z,38.67
2023-05-08T23:20:16.657Z,38.45
2023-05-08T23:22:44.799Z,38.83
2023-05-08T23:25:13.138Z,38.84
2023-05-08T23:27:42.406Z,38.90
2023-05-08T23:30:13.316Z,38.72
2023-05-08T23:32:42.207Z,38.66
2023-05-08T23:35:12.440Z,38.73
2023-05-08T23:37:40.787Z,38.67
2023-05-08T23:40:10.568Z,39.08
2023-05-08T23:42:40.115Z,39.09
2023-05-08T23:45:09.612Z,39.10
2023-05-08T23:47:38.800Z,39.10
2023-05-08T23:50:08.538Z,39.41
2023-05-08T23:52:38.574Z,39.41
2023-05-08T23:55:07.551Z,39.27
2023-05-08T23:57:35.978Z,39.38
